GAP2924 RPVR-RPLL
Flight info
| Callsign | GAP2924 |
|---|---|
| Flight time | N/A |
| Altitude | 26000 |
| Route | MINOR3B MINOR B473 LAIYA LAIYA1A |
| Aircraft | A20N/M-SDE2E3FGHIRWXY/LB1 |
Departure
| Time | 2026-04-27 05:18 |
|---|---|
| Airport | Roxas Airport (RPVR) |
Arrival
| Time | N/A |
|---|---|
| Airport | Ninoy Aquino International Airport (RPLL) |
| Time | Latitude | Longitude | Altitude | Speed | Heading |
|---|---|---|---|---|---|
| 2026-04-27 05:00 | 11.60083 | 122.74931 | 22 ft | 0 kts | 265° |
| 2026-04-27 05:12 | 11.60083 | 122.74929 | 22 ft | 0 kts | 265° |
| 2026-04-27 05:12 | 11.60083 | 122.74926 | 22 ft | 0 kts | 278° |
| 2026-04-27 05:13 | 11.60083 | 122.74925 | 22 ft | 0 kts | 282° |
| 2026-04-27 05:13 | 11.60088 | 122.74919 | 22 ft | 1 kts | 336° |
| 2026-04-27 05:13 | 11.60104 | 122.74925 | 22 ft | 4 kts | 37° |
| 2026-04-27 05:13 | 11.60130 | 122.74925 | 22 ft | 4 kts | 339° |
| 2026-04-27 05:14 | 11.60159 | 122.74918 | 22 ft | 4 kts | 359° |
| 2026-04-27 05:14 | 11.60174 | 122.74919 | 22 ft | 0 kts | 10° |
| 2026-04-27 05:15 | 11.60175 | 122.74920 | 22 ft | 0 kts | 10° |
| 2026-04-27 05:15 | 11.60182 | 122.74921 | 22 ft | 1 kts | 11° |
| 2026-04-27 05:15 | 11.60196 | 122.74924 | 22 ft | 2 kts | 14° |
| 2026-04-27 05:15 | 11.60221 | 122.74931 | 22 ft | 5 kts | 14° |
| 2026-04-27 05:16 | 11.60267 | 122.74931 | 22 ft | 7 kts | 336° |
| 2026-04-27 05:16 | 11.60322 | 122.74894 | 23 ft | 10 kts | 325° |
| 2026-04-27 05:16 | 11.60392 | 122.74847 | 24 ft | 13 kts | 325° |
| 2026-04-27 05:16 | 11.60458 | 122.74814 | 24 ft | 5 kts | 334° |
| 2026-04-27 05:17 | 11.60445 | 122.74809 | 24 ft | 4 kts | 161° |
| 2026-04-27 05:17 | 11.60433 | 122.74815 | 24 ft | 0 kts | 147° |
| 2026-04-27 05:17 | 11.60407 | 122.74834 | 24 ft | 21 kts | 145° |
| 2026-04-27 05:17 | 11.60031 | 122.75098 | 22 ft | 106 kts | 140° |
| 2026-04-27 05:18 | 11.59234 | 122.75674 | 203 ft | 158 kts | 141° |
| 2026-04-27 05:18 | 11.58395 | 122.76350 | 992 ft | 156 kts | 121° |
| 2026-04-27 05:18 | 11.58105 | 122.77354 | 1838 ft | 153 kts | 82° |
| 2026-04-27 05:18 | 11.58554 | 122.78303 | 2443 ft | 161 kts | 44° |
| 2026-04-27 05:19 | 11.59663 | 122.78700 | 2916 ft | 186 kts | 359° |
| 2026-04-27 05:19 | 11.60903 | 122.78142 | 3413 ft | 208 kts | 330° |
| 2026-04-27 05:19 | 11.62146 | 122.77253 | 3898 ft | 225 kts | 328° |
| 2026-04-27 05:19 | 11.63468 | 122.76291 | 4347 ft | 245 kts | 328° |
| 2026-04-27 05:20 | 11.64910 | 122.75243 | 4880 ft | 261 kts | 328° |
| 2026-04-27 05:20 | 11.66420 | 122.74148 | 5558 ft | 272 kts | 327° |
| 2026-04-27 05:20 | 11.68008 | 122.73002 | 6124 ft | 288 kts | 327° |
| 2026-04-27 05:20 | 11.69659 | 122.71812 | 6916 ft | 293 kts | 327° |
| 2026-04-27 05:21 | 11.71331 | 122.70609 | 7781 ft | 296 kts | 327° |
| 2026-04-27 05:21 | 11.73018 | 122.69398 | 8627 ft | 297 kts | 327° |
| 2026-04-27 05:21 | 11.74706 | 122.68185 | 9425 ft | 300 kts | 326° |
| 2026-04-27 05:21 | 11.76426 | 122.66949 | 10204 ft | 303 kts | 326° |
| 2026-04-27 05:22 | 11.78181 | 122.65691 | 10707 ft | 316 kts | 326° |
| 2026-04-27 05:22 | 11.80024 | 122.64368 | 11058 ft | 333 kts | 326° |
| 2026-04-27 05:22 | 11.81988 | 122.62960 | 11375 ft | 351 kts | 326° |
| 2026-04-27 05:22 | 11.84040 | 122.61486 | 11694 ft | 367 kts | 326° |
| 2026-04-27 05:23 | 11.86150 | 122.59971 | 12261 ft | 373 kts | 326° |
| 2026-04-27 05:23 | 11.88284 | 122.58438 | 12916 ft | 376 kts | 326° |
| 2026-04-27 05:23 | 11.90438 | 122.56891 | 13566 ft | 379 kts | 326° |
| 2026-04-27 05:23 | 11.92585 | 122.55347 | 14188 ft | 382 kts | 326° |
| 2026-04-27 05:24 | 11.94786 | 122.53766 | 14811 ft | 384 kts | 326° |
| 2026-04-27 05:24 | 11.96984 | 122.52186 | 15411 ft | 387 kts | 325° |
| 2026-04-27 05:24 | 11.99197 | 122.50596 | 16000 ft | 389 kts | 325° |
| 2026-04-27 05:24 | 12.01405 | 122.49007 | 16561 ft | 392 kts | 325° |
| 2026-04-27 05:25 | 12.03652 | 122.47392 | 17114 ft | 395 kts | 325° |
| 2026-04-27 05:25 | 12.05917 | 122.45764 | 17619 ft | 399 kts | 325° |
| 2026-04-27 05:25 | 12.08218 | 122.44108 | 18135 ft | 402 kts | 325° |
| 2026-04-27 05:25 | 12.10517 | 122.42454 | 18644 ft | 405 kts | 325° |
| 2026-04-27 05:26 | 12.12826 | 122.40801 | 19145 ft | 407 kts | 325° |
| 2026-04-27 05:26 | 12.15171 | 122.39120 | 19643 ft | 410 kts | 325° |
| 2026-04-27 05:26 | 12.17498 | 122.37451 | 20126 ft | 412 kts | 325° |
| 2026-04-27 05:26 | 12.19846 | 122.35764 | 20592 ft | 415 kts | 325° |
| 2026-04-27 05:27 | 12.22241 | 122.34038 | 21052 ft | 418 kts | 324° |
| 2026-04-27 05:27 | 12.24602 | 122.32323 | 21494 ft | 420 kts | 325° |
| 2026-04-27 05:27 | 12.26985 | 122.30593 | 21942 ft | 423 kts | 324° |
| 2026-04-27 05:27 | 12.29415 | 122.28833 | 22384 ft | 425 kts | 325° |
| 2026-04-27 05:28 | 12.31849 | 122.27075 | 22824 ft | 427 kts | 324° |
| 2026-04-27 05:28 | 12.34301 | 122.25307 | 23223 ft | 431 kts | 324° |
| 2026-04-27 05:28 | 12.36741 | 122.23547 | 23613 ft | 434 kts | 324° |
| 2026-04-27 05:28 | 12.39262 | 122.21771 | 24026 ft | 436 kts | 325° |
| 2026-04-27 05:29 | 12.41764 | 122.20039 | 24422 ft | 438 kts | 325° |
| 2026-04-27 05:29 | 12.44339 | 122.18259 | 24806 ft | 441 kts | 325° |
| 2026-04-27 05:29 | 12.46894 | 122.16492 | 25177 ft | 444 kts | 324° |
| 2026-04-27 05:29 | 12.49441 | 122.14727 | 25535 ft | 446 kts | 324° |
| 2026-04-27 05:30 | 12.52041 | 122.12923 | 25803 ft | 448 kts | 324° |
| 2026-04-27 05:30 | 12.54618 | 122.11132 | 25829 ft | 448 kts | 324° |
| 2026-04-27 05:30 | 12.57229 | 122.09318 | 25836 ft | 448 kts | 324° |
| 2026-04-27 05:30 | 12.59784 | 122.07542 | 25838 ft | 447 kts | 324° |
| 2026-04-27 05:31 | 12.62382 | 122.05735 | 25838 ft | 447 kts | 324° |
| 2026-04-27 05:31 | 12.64946 | 122.03952 | 25838 ft | 447 kts | 324° |
| 2026-04-27 05:31 | 12.67535 | 122.02151 | 25839 ft | 447 kts | 324° |
| 2026-04-27 05:31 | 12.70118 | 122.00354 | 25839 ft | 447 kts | 324° |
| 2026-04-27 05:32 | 12.72692 | 121.98562 | 25839 ft | 448 kts | 324° |
| 2026-04-27 05:32 | 12.75301 | 121.96744 | 25840 ft | 447 kts | 324° |
| 2026-04-27 05:32 | 12.77876 | 121.94952 | 25839 ft | 447 kts | 324° |
| 2026-04-27 05:32 | 12.80449 | 121.93159 | 25840 ft | 447 kts | 324° |
| 2026-04-27 05:33 | 12.83036 | 121.91357 | 25843 ft | 447 kts | 324° |
| 2026-04-27 05:33 | 12.85616 | 121.89558 | 25848 ft | 446 kts | 324° |
| 2026-04-27 05:33 | 12.88190 | 121.87764 | 25851 ft | 446 kts | 324° |
| 2026-04-27 05:33 | 12.90742 | 121.85983 | 25853 ft | 446 kts | 324° |
| 2026-04-27 05:34 | 12.93320 | 121.84184 | 25855 ft | 446 kts | 324° |
| 2026-04-27 05:34 | 12.95894 | 121.82387 | 25858 ft | 445 kts | 324° |
| 2026-04-27 05:34 | 12.98465 | 121.80592 | 25858 ft | 445 kts | 324° |
| 2026-04-27 05:34 | 13.01035 | 121.78799 | 25861 ft | 445 kts | 324° |
| 2026-04-27 05:35 | 13.03590 | 121.77014 | 25864 ft | 445 kts | 324° |
| 2026-04-27 05:35 | 13.06154 | 121.75224 | 25866 ft | 445 kts | 324° |
| 2026-04-27 05:35 | 13.08732 | 121.73425 | 25856 ft | 446 kts | 324° |
| 2026-04-27 05:35 | 13.11307 | 121.71626 | 25575 ft | 444 kts | 324° |
| 2026-04-27 05:36 | 13.13889 | 121.69831 | 25248 ft | 442 kts | 324° |
| 2026-04-27 05:36 | 13.16428 | 121.68065 | 24828 ft | 439 kts | 324° |
| 2026-04-27 05:36 | 13.18943 | 121.66312 | 24349 ft | 435 kts | 324° |
| 2026-04-27 05:36 | 13.21439 | 121.64569 | 23846 ft | 431 kts | 325° |
| 2026-04-27 05:37 | 13.23890 | 121.62856 | 23337 ft | 427 kts | 325° |
| 2026-04-27 05:37 | 13.26365 | 121.61123 | 22815 ft | 423 kts | 325° |
| 2026-04-27 05:37 | 13.28748 | 121.59454 | 22309 ft | 419 kts | 326° |
| 2026-04-27 05:37 | 13.31169 | 121.57759 | 21794 ft | 415 kts | 326° |
| 2026-04-27 05:38 | 13.33529 | 121.56107 | 21267 ft | 412 kts | 326° |
| 2026-04-27 05:38 | 13.35910 | 121.54439 | 20737 ft | 408 kts | 326° |
| 2026-04-27 05:38 | 13.38252 | 121.52799 | 20212 ft | 405 kts | 326° |
| 2026-04-27 05:38 | 13.40588 | 121.51162 | 19675 ft | 403 kts | 326° |
| 2026-04-27 05:39 | 13.42897 | 121.49543 | 19143 ft | 400 kts | 326° |
| 2026-04-27 05:39 | 13.45191 | 121.47932 | 18609 ft | 398 kts | 326° |
| 2026-04-27 05:39 | 13.47480 | 121.46326 | 18079 ft | 395 kts | 326° |
| 2026-04-27 05:39 | 13.49756 | 121.44727 | 17564 ft | 393 kts | 326° |
| 2026-04-27 05:40 | 13.52028 | 121.43131 | 17051 ft | 391 kts | 325° |
| 2026-04-27 05:40 | 13.54265 | 121.41560 | 16534 ft | 389 kts | 325° |
| 2026-04-27 05:40 | 13.56492 | 121.39996 | 16043 ft | 387 kts | 325° |
| 2026-04-27 05:40 | 13.58717 | 121.38440 | 15742 ft | 387 kts | 326° |
| 2026-04-27 05:41 | 13.60973 | 121.36874 | 15789 ft | 391 kts | 326° |
| 2026-04-27 05:41 | 13.63367 | 121.35501 | 15738 ft | 390 kts | 339° |
| 2026-04-27 05:41 | 13.65996 | 121.34880 | 15396 ft | 384 kts | 353° |
| 2026-04-27 05:41 | 13.68647 | 121.34649 | 14827 ft | 383 kts | 356° |
| 2026-04-27 05:42 | 13.71331 | 121.34489 | 14208 ft | 382 kts | 357° |
| 2026-04-27 05:42 | 13.73968 | 121.34342 | 13687 ft | 379 kts | 357° |
| 2026-04-27 05:42 | 13.76585 | 121.34194 | 13150 ft | 375 kts | 357° |
| 2026-04-27 05:42 | 13.79211 | 121.34042 | 12640 ft | 372 kts | 357° |
| 2026-04-27 05:43 | 13.81786 | 121.33886 | 12107 ft | 370 kts | 357° |
| 2026-04-27 05:43 | 13.84372 | 121.33729 | 11583 ft | 367 kts | 357° |
| 2026-04-27 05:43 | 13.86917 | 121.33569 | 11064 ft | 364 kts | 357° |
| 2026-04-27 05:43 | 13.89424 | 121.33411 | 10577 ft | 361 kts | 357° |
| 2026-04-27 05:44 | 13.91924 | 121.33209 | 10354 ft | 349 kts | 352° |
| 2026-04-27 05:44 | 13.94182 | 121.32417 | 10144 ft | 338 kts | 334° |
| 2026-04-27 05:44 | 13.96219 | 121.31276 | 10054 ft | 324 kts | 330° |
| 2026-04-27 05:44 | 13.98119 | 121.30154 | 10049 ft | 307 kts | 331° |
| 2026-04-27 05:45 | 13.99981 | 121.29081 | 10059 ft | 303 kts | 332° |
| 2026-04-27 05:45 | 14.01836 | 121.28046 | 10049 ft | 303 kts | 332° |
| 2026-04-27 05:45 | 14.03701 | 121.27032 | 10042 ft | 303 kts | 333° |
| 2026-04-27 05:45 | 14.05601 | 121.26015 | 10035 ft | 303 kts | 333° |
| 2026-04-27 05:46 | 14.07476 | 121.25020 | 9972 ft | 303 kts | 333° |
| 2026-04-27 05:46 | 14.09336 | 121.24037 | 9846 ft | 302 kts | 333° |
| 2026-04-27 05:46 | 14.11229 | 121.23041 | 9709 ft | 301 kts | 333° |
| 2026-04-27 05:46 | 14.13105 | 121.22061 | 9579 ft | 301 kts | 333° |
| 2026-04-27 05:47 | 14.14983 | 121.21079 | 9447 ft | 300 kts | 334° |
| 2026-04-27 05:47 | 14.16853 | 121.20099 | 9306 ft | 300 kts | 334° |
| 2026-04-27 05:47 | 14.18726 | 121.19117 | 9188 ft | 299 kts | 333° |
| 2026-04-27 05:47 | 14.20586 | 121.18139 | 9058 ft | 299 kts | 334° |
| 2026-04-27 05:48 | 14.22439 | 121.17165 | 8930 ft | 299 kts | 333° |
| 2026-04-27 05:48 | 14.24310 | 121.16180 | 8800 ft | 298 kts | 334° |
| 2026-04-27 05:48 | 14.26173 | 121.15200 | 8691 ft | 298 kts | 334° |
| 2026-04-27 05:48 | 14.27403 | 121.14553 | 8614 ft | 298 kts | 334° |
| 2026-04-27 05:49 | 14.28635 | 121.13905 | 8530 ft | 297 kts | 334° |